CYQL

Lethbridge County Airport

Lethbridge, Alberta, Canada
METAR CYQL 171800Z 23009KT 60SM SKC 18/M03 A3019 RMK SLP230 DENSITY ALT 3800FT
Observed Flight Rules
Oct-17 @ 18:00 UTC (30 minutes ago) Visual Flight Rules
Wind Visibility Clouds
230° at 9 knots 60 miles
  • Clear skies
Temperatures Readings
Current 18°C / 64°F
Dewpoint -3°C / 27°F
Humidity 24%
Altimeter 30.19" Hg
Pressure 1023 hPa
Elevation 929
METAR CYQL 171800Z 23009KT 60SM SKC 18/M03 A3019 RMK SLP230 DENSITY ALT 3800FT
Observed Flight Rules
Oct-17 @ 18:00 UTC
(30 minutes ago)
VFR
Wind Visibility
230° at 9 knots 60 miles
Clouds
  • Clear skies
Temperature Dewpoint
18°C / 64°F -3°C / 27°F
Humidity Altimeter Pressure
24% 30.19" Hg 1023 hPa